Elk Point, Canada
Current Conditions -  °F | °C
As of 9:00 AM on Tuesday 21 Oct 2014 (Local Time) from CYOD Reporting Station
Broken Clouds Broken Clouds  
Wind Chill:   Ceiling: 25000
Heat Index:   Visibility: 15mi
Dew Point:   Wind: 3mph
Humidity: 93%   Direction: 250°WSW
Pressure: 29.53"   Gusts: NA
Location:  53.9°N, 110.9°W
Report Text: CYOD 211500Z 25003KT 15SM FEW100 BKN250 03/02 A2953 RMK AC1CI4SLP016
Loading
Personal Weather Stations






























Interactive Weather Map
Tropical Storm Tracking
New forecast layout! Learn more

10-Day Weather Forecast

Advertisements
Track Severe Weather on mobile